createdAt,value
2022-12-01T00:00:22.583Z,11.88
2022-12-01T00:03:25.628Z,12.82
2022-12-01T00:06:27.969Z,12.15
2022-12-01T00:09:49.409Z,12.18
2022-12-01T00:13:00.837Z,10.77
2022-12-01T00:16:11.905Z,10.15
2022-12-01T00:19:14.219Z,10.40
2022-12-01T00:22:16.783Z,10.98
2022-12-01T00:25:20.432Z,9.35
2022-12-01T00:28:22.976Z,9.43
2022-12-01T00:31:27.102Z,10.77
2022-12-01T00:34:29.877Z,9.98
2022-12-01T00:37:34.265Z,10.10
2022-12-01T00:40:36.787Z,10.60
2022-12-01T00:43:39.963Z,9.93
2022-12-01T00:46:42.708Z,9.75
2022-12-01T00:49:48.120Z,10.07
2022-12-01T00:52:50.974Z,9.55
2022-12-01T00:55:56.203Z,10.52
2022-12-01T00:58:58.827Z,10.53
2022-12-01T01:02:01.403Z,10.73
2022-12-01T01:05:04.339Z,10.95
2022-12-01T01:08:09.303Z,9.98
2022-12-01T01:11:12.316Z,11.88
2022-12-01T01:14:15.322Z,11.80
2022-12-01T01:17:17.937Z,12.73
2022-12-01T01:20:20.855Z,13.18
2022-12-01T01:23:23.672Z,11.18
2022-12-01T01:26:29.391Z,11.38
2022-12-01T01:29:32.742Z,9.33
2022-12-01T01:32:35.238Z,9.75
2022-12-01T01:35:38.081Z,10.20
2022-12-01T01:38:40.389Z,10.07
2022-12-01T01:41:43.075Z,9.20
2022-12-01T01:44:57.213Z,9.40
2022-12-01T01:48:00.795Z,9.80
2022-12-01T01:51:03.821Z,9.50
2022-12-01T01:54:10.195Z,10.23
2022-12-01T01:57:17.017Z,10.63
2022-12-01T02:00:21.660Z,10.70
2022-12-01T02:03:25.140Z,11.50
2022-12-01T02:06:27.870Z,12.35
2022-12-01T02:09:30.193Z,12.15
2022-12-01T02:12:41.581Z,11.55
2022-12-01T02:15:52.654Z,11.30
2022-12-01T02:19:33.757Z,10.98
2022-12-01T02:23:00.289Z,10.63
2022-12-01T02:26:11.584Z,10.13
2022-12-01T02:29:38.424Z,9.98
2022-12-01T02:32:44.011Z,9.07
2022-12-01T02:35:55.360Z,9.48
2022-12-01T02:39:09.858Z,9.20
2022-12-01T02:42:36.105Z,10.75
2022-12-01T02:45:49.484Z,9.40
2022-12-01T02:48:54.933Z,9.30
2022-12-01T02:51:58.925Z,8.77
2022-12-01T02:55:01.181Z,9.90
2022-12-01T02:58:14.224Z,9.63
2022-12-01T03:01:46.043Z,10.55
2022-12-01T03:05:06.860Z,8.90
2022-12-01T03:08:46.981Z,10.60
2022-12-01T03:12:21.984Z,9.15
2022-12-01T03:15:47.715Z,9.38
2022-12-01T03:19:25.629Z,9.35
2022-12-01T03:22:41.713Z,9.40
2022-12-01T03:25:48.645Z,9.90
2022-12-01T03:28:56.628Z,8.63
2022-12-01T03:32:06.264Z,10.07
2022-12-01T03:35:16.177Z,10.02
2022-12-01T03:38:24.274Z,9.07
2022-12-01T03:41:35.351Z,8.90
2022-12-01T03:44:51.905Z,9.40
2022-12-01T03:47:54.381Z,9.15
2022-12-01T03:51:11.625Z,8.82
2022-12-01T03:54:23.144Z,8.27
2022-12-01T03:57:34.838Z,9.65
2022-12-01T04:00:37.997Z,10.38
2022-12-01T04:03:40.666Z,9.55
2022-12-01T04:06:47.396Z,9.38
2022-12-01T04:09:50.172Z,8.10
2022-12-01T04:12:58.961Z,8.18
2022-12-01T04:16:01.670Z,8.65
2022-12-01T04:19:04.069Z,8.02
2022-12-01T04:22:06.690Z,8.73
2022-12-01T04:25:10.185Z,8.10
2022-12-01T04:28:12.696Z,8.50
2022-12-01T04:31:15.009Z,7.97
2022-12-01T04:34:17.621Z,8.95
2022-12-01T04:37:20.425Z,8.48
2022-12-01T04:40:22.954Z,8.53
2022-12-01T04:43:25.242Z,7.80
2022-12-01T04:46:27.968Z,8.38
2022-12-01T04:49:30.956Z,8.40
2022-12-01T04:52:37.318Z,8.32
2022-12-01T04:55:39.639Z,8.50
2022-12-01T04:58:43.315Z,9.25
2022-12-01T05:01:48.159Z,9.10
2022-12-01T05:04:50.916Z,9.32
2022-12-01T05:07:53.192Z,9.63
2022-12-01T05:10:56.715Z,8.63
2022-12-01T05:13:59.679Z,8.20
2022-12-01T05:17:02.442Z,8.68
2022-12-01T05:20:23.862Z,8.82
2022-12-01T05:23:29.022Z,9.75
2022-12-01T05:26:31.282Z,9.70
2022-12-01T05:29:34.242Z,9.55
2022-12-01T05:32:36.645Z,8.68
2022-12-01T05:35:39.249Z,9.20
2022-12-01T05:38:41.577Z,10.55
2022-12-01T05:41:44.107Z,10.70
2022-12-01T05:44:46.331Z,9.95
2022-12-01T05:47:48.828Z,9.50
2022-12-01T05:50:51.556Z,9.27
2022-12-01T05:53:54.110Z,11.35
2022-12-01T05:56:56.429Z,10.77
2022-12-01T05:59:59.302Z,12.68
2022-12-01T06:03:02.214Z,11.52
2022-12-01T06:06:04.882Z,13.23
2022-12-01T06:09:08.293Z,11.85
2022-12-01T06:12:10.854Z,13.37
2022-12-01T06:15:14.127Z,12.07
2022-12-01T06:18:16.703Z,11.85
2022-12-01T06:21:19.156Z,14.48
2022-12-01T06:24:21.782Z,16.35
2022-12-01T06:27:24.321Z,14.47
2022-12-01T06:30:26.949Z,13.98
2022-12-01T06:33:29.243Z,15.65
2022-12-01T06:36:31.773Z,16.58
2022-12-01T06:39:34.015Z,16.98
2022-12-01T06:42:36.550Z,16.17
2022-12-01T06:45:38.865Z,15.88
2022-12-01T06:48:41.583Z,17.00
2022-12-01T06:51:43.875Z,16.10
2022-12-01T06:54:46.519Z,15.60
2022-12-01T06:57:49.205Z,18.13
2022-12-01T07:00:52.509Z,15.30
2022-12-01T07:03:55.159Z,14.70
2022-12-01T07:06:57.736Z,14.35
2022-12-01T07:09:59.991Z,13.43
2022-12-01T07:13:02.586Z,15.70
2022-12-01T07:16:06.395Z,14.50
2022-12-01T07:19:09.606Z,14.75
2022-12-01T07:22:11.874Z,13.35
2022-12-01T07:25:14.697Z,13.55
2022-12-01T07:28:16.913Z,14.07
2022-12-01T07:31:20.730Z,14.20
2022-12-01T07:34:22.993Z,14.57
2022-12-01T07:37:25.554Z,13.35
2022-12-01T07:40:27.794Z,13.80
2022-12-01T07:43:32.079Z,14.80
2022-12-01T07:46:34.562Z,14.25
2022-12-01T07:49:38.132Z,13.77
2022-12-01T07:52:40.383Z,14.23
2022-12-01T07:55:48.703Z,13.98
2022-12-01T07:58:51.482Z,13.00
2022-12-01T08:01:54.182Z,12.63
2022-12-01T08:04:56.787Z,13.00
2022-12-01T08:07:59.262Z,14.35
2022-12-01T08:11:04.317Z,13.23
2022-12-01T08:14:06.776Z,14.20
2022-12-01T08:17:09.616Z,14.80
2022-12-01T08:20:12.476Z,15.68
2022-12-01T08:23:15.028Z,16.08
2022-12-01T08:26:19.882Z,14.25
2022-12-01T08:29:22.407Z,18.80
2022-12-01T08:32:24.802Z,16.00
2022-12-01T08:35:27.402Z,15.00
2022-12-01T08:38:29.795Z,15.45
2022-12-01T08:41:32.504Z,13.82
2022-12-01T08:44:34.992Z,17.33
2022-12-01T08:47:37.634Z,15.60
2022-12-01T08:50:39.960Z,15.25
2022-12-01T08:53:46.039Z,15.50
2022-12-01T08:56:48.494Z,15.18
2022-12-01T08:59:51.543Z,15.70
2022-12-01T09:02:54.043Z,16.58
2022-12-01T09:06:02.396Z,16.67
2022-12-01T09:09:05.255Z,16.98
2022-12-01T09:12:09.114Z,16.62
2022-12-01T09:15:11.480Z,17.67
2022-12-01T09:18:13.979Z,16.52
2022-12-01T09:21:25.409Z,15.82
2022-12-01T09:24:28.347Z,15.77
2022-12-01T09:27:30.616Z,16.90
2022-12-01T09:30:35.459Z,18.70
2022-12-01T09:33:38.734Z,16.52
2022-12-01T09:36:41.685Z,14.90
2022-12-01T09:39:46.357Z,14.23
2022-12-01T09:42:49.017Z,14.45
2022-12-01T09:46:02.291Z,13.37
2022-12-01T09:49:12.258Z,14.57
2022-12-01T09:52:18.076Z,13.35
2022-12-01T09:55:23.435Z,10.85
2022-12-01T09:58:30.866Z,13.27
2022-12-01T10:01:39.103Z,11.43
2022-12-01T10:04:46.262Z,11.30
2022-12-01T10:08:05.161Z,10.13
2022-12-01T10:11:40.307Z,8.75
2022-12-01T10:14:48.620Z,11.60
2022-12-01T10:18:01.833Z,9.20
2022-12-01T10:21:04.059Z,10.70
2022-12-01T10:24:16.946Z,9.65
2022-12-01T10:27:37.435Z,10.43
2022-12-01T10:30:50.121Z,10.05
2022-12-01T10:34:00.664Z,9.70
2022-12-01T11:24:42.296Z,11.12
2022-12-01T11:27:54.184Z,11.02
2022-12-01T11:31:03.778Z,12.95
2022-12-01T11:34:28.535Z,12.13
2022-12-01T11:38:13.271Z,11.02
2022-12-01T11:41:28.363Z,11.77
2022-12-01T11:44:50.978Z,11.77
2022-12-01T11:48:28.001Z,12.13
2022-12-01T11:51:37.530Z,11.63
2022-12-01T11:55:14.359Z,11.57
2022-12-01T11:58:16.685Z,10.98
2022-12-01T12:01:44.208Z,11.25
2022-12-01T12:04:55.780Z,10.48
2022-12-01T12:08:30.874Z,10.57
2022-12-01T12:11:42.455Z,12.63
2022-12-01T12:14:48.511Z,10.30
2022-12-01T12:18:09.372Z,10.45
2022-12-01T12:21:20.660Z,10.82
2022-12-01T12:25:04.849Z,12.43
2022-12-01T12:28:33.357Z,11.27
2022-12-01T12:31:45.504Z,10.32
2022-12-01T12:35:02.861Z,11.20
2022-12-01T12:38:11.096Z,11.12
2022-12-01T12:41:35.515Z,10.97
2022-12-01T12:44:49.648Z,9.80
2022-12-01T12:48:23.414Z,9.27
2022-12-01T12:51:39.510Z,9.48
2022-12-01T12:54:57.334Z,9.65
2022-12-01T12:58:16.804Z,9.73
2022-12-01T13:01:24.767Z,9.40
2022-12-01T13:04:52.247Z,9.07
2022-12-01T13:08:09.170Z,9.30
2022-12-01T13:11:36.128Z,9.20
2022-12-01T13:14:43.819Z,8.30
2022-12-01T13:18:18.507Z,10.55
2022-12-01T13:21:22.488Z,9.68
2022-12-01T13:24:29.424Z,9.18
2022-12-01T13:27:38.437Z,9.23
2022-12-01T13:30:41.004Z,8.43
2022-12-01T13:33:57.338Z,9.50
2022-12-01T13:36:59.991Z,9.93
2022-12-01T13:40:24.640Z,9.75
2022-12-01T13:43:27.192Z,9.90
2022-12-01T13:47:02.608Z,9.67
2022-12-01T13:50:39.094Z,8.73
2022-12-01T13:54:28.550Z,9.10
2022-12-01T13:57:33.419Z,8.70
2022-12-01T14:00:36.224Z,10.20
2022-12-01T14:03:40.631Z,9.00
2022-12-01T14:06:52.544Z,8.63
2022-12-01T14:10:06.322Z,9.68
2022-12-01T14:13:19.481Z,9.07
2022-12-01T14:16:22.779Z,9.80
2022-12-01T14:19:43.598Z,9.43
2022-12-01T14:23:13.827Z,8.15
2022-12-01T14:26:19.549Z,9.27
2022-12-01T14:29:29.368Z,8.57
2022-12-01T14:32:31.676Z,11.23
2022-12-01T14:35:34.279Z,9.27
2022-12-01T14:38:36.942Z,9.18
2022-12-01T14:41:45.219Z,9.15
2022-12-01T14:44:51.545Z,9.23
2022-12-01T14:48:02.350Z,8.90
2022-12-01T14:51:30.000Z,8.97
2022-12-01T14:54:49.646Z,8.70
2022-12-01T14:58:06.362Z,8.38
2022-12-01T15:01:12.523Z,7.78
2022-12-01T15:04:15.517Z,9.95
2022-12-01T15:07:23.122Z,8.37
2022-12-01T15:10:29.220Z,8.15
2022-12-01T15:13:41.098Z,7.62
2022-12-01T15:16:43.578Z,8.05
2022-12-01T15:19:46.297Z,8.85
2022-12-01T15:22:49.445Z,7.67
2022-12-01T15:25:52.178Z,7.87
2022-12-01T15:29:06.423Z,7.60
2022-12-01T15:32:15.637Z,6.80
2022-12-01T15:35:23.108Z,7.72
2022-12-01T15:38:32.573Z,8.00
2022-12-01T15:41:40.215Z,6.90
2022-12-01T15:44:42.903Z,7.18
2022-12-01T15:47:48.157Z,7.28
2022-12-01T15:51:05.826Z,8.65
2022-12-01T15:54:19.468Z,7.80
2022-12-01T15:57:22.518Z,7.37
2022-12-01T16:00:25.457Z,8.93
2022-12-01T16:03:28.675Z,8.18
2022-12-01T16:06:34.776Z,7.50
2022-12-01T16:09:40.419Z,8.37
2022-12-01T16:12:42.726Z,8.50
2022-12-01T16:15:45.357Z,8.90
2022-12-01T16:18:56.374Z,9.48
2022-12-01T16:22:11.145Z,8.43
2022-12-01T16:25:33.461Z,8.90
2022-12-01T16:28:36.210Z,9.63
2022-12-01T16:31:58.594Z,8.70
2022-12-01T16:35:01.942Z,9.80
2022-12-01T16:38:22.670Z,10.52
2022-12-01T16:41:38.055Z,9.07
2022-12-01T16:44:42.736Z,9.52
2022-12-01T16:47:48.183Z,9.40
2022-12-01T16:50:52.051Z,9.88
2022-12-01T16:53:55.810Z,9.05
2022-12-01T16:56:58.071Z,9.70
2022-12-01T17:00:00.600Z,9.65
2022-12-01T17:03:04.439Z,10.40
2022-12-01T17:06:07.542Z,9.90
2022-12-01T17:09:09.800Z,10.57
2022-12-01T17:12:12.366Z,9.93
2022-12-01T17:15:15.622Z,9.38
2022-12-01T17:18:19.459Z,9.20
2022-12-01T17:21:22.225Z,10.15
2022-12-01T17:24:25.997Z,9.82
2022-12-01T17:27:29.735Z,9.87
2022-12-01T17:30:32.264Z,9.48
2022-12-01T17:33:36.291Z,9.30
2022-12-01T17:36:38.834Z,9.82
2022-12-01T17:39:41.179Z,11.25
2022-12-01T17:42:50.001Z,12.27
2022-12-01T17:45:52.813Z,11.68
2022-12-01T17:48:55.524Z,13.20
2022-12-01T17:51:57.842Z,12.25
2022-12-01T17:55:00.489Z,12.10
2022-12-01T17:58:03.847Z,12.50
2022-12-01T18:01:11.748Z,12.63
2022-12-01T18:04:15.921Z,13.70
2022-12-01T18:07:18.277Z,14.38
2022-12-01T18:10:21.351Z,14.18
2022-12-01T18:13:23.716Z,13.13
2022-12-01T18:16:29.456Z,12.40
2022-12-01T18:19:31.846Z,13.80
2022-12-01T18:22:34.440Z,13.35
2022-12-01T18:25:37.978Z,14.63
2022-12-01T18:28:40.516Z,13.53
2022-12-01T18:31:43.671Z,13.38
2022-12-01T18:34:46.594Z,14.35
2022-12-01T18:37:48.877Z,15.23
2022-12-01T18:40:51.383Z,12.30
2022-12-01T18:43:54.185Z,12.90
2022-12-01T18:46:57.842Z,13.30
2022-12-01T18:50:00.150Z,14.02
2022-12-01T18:53:02.714Z,15.60
2022-12-01T18:56:10.280Z,15.82
2022-12-01T18:59:16.863Z,16.00
2022-12-01T19:02:19.908Z,16.77
2022-12-01T19:05:23.216Z,16.45
2022-12-01T19:08:25.459Z,14.43
2022-12-01T19:11:29.022Z,15.18
2022-12-01T19:14:31.320Z,16.13
2022-12-01T19:17:34.146Z,17.05
2022-12-01T19:20:37.969Z,17.92
2022-12-01T19:23:40.756Z,16.05
2022-12-01T19:26:43.122Z,14.55
2022-12-01T19:29:45.933Z,14.83
2022-12-01T19:32:48.545Z,14.95
2022-12-01T19:35:51.065Z,16.70
2022-12-01T19:38:57.487Z,15.18
2022-12-01T19:42:00.274Z,14.93
2022-12-01T19:45:02.714Z,15.87
2022-12-01T19:48:06.061Z,14.93
2022-12-01T19:51:26.614Z,16.67
2022-12-01T19:54:30.425Z,16.58
2022-12-01T19:57:32.749Z,15.88
2022-12-01T20:00:35.368Z,16.17
2022-12-01T20:03:40.741Z,15.65
2022-12-01T20:06:43.203Z,15.77
2022-12-01T20:09:49.891Z,16.02
2022-12-01T20:12:52.781Z,16.83
2022-12-01T20:16:01.547Z,14.10
2022-12-01T20:19:06.229Z,14.40
2022-12-01T20:22:08.764Z,15.10
2022-12-01T20:25:11.095Z,13.90
2022-12-01T20:28:13.627Z,15.65
2022-12-01T20:31:21.119Z,15.60
2022-12-01T20:34:31.413Z,16.37
2022-12-01T20:37:33.727Z,19.10
2022-12-01T20:40:36.323Z,16.58
2022-12-01T20:43:38.592Z,15.65
2022-12-01T20:46:41.177Z,16.27
2022-12-01T20:49:43.566Z,17.35
2022-12-01T20:52:46.075Z,17.70
2022-12-01T20:55:49.255Z,18.17
2022-12-01T20:58:52.851Z,17.80
2022-12-01T21:01:55.227Z,18.50
2022-12-01T21:04:59.376Z,18.35
2022-12-01T21:08:02.500Z,18.55
2022-12-01T21:11:07.855Z,18.00
2022-12-01T21:14:32.514Z,18.67
2022-12-01T21:17:43.689Z,18.03
2022-12-01T21:20:48.811Z,18.35
2022-12-01T21:24:21.598Z,18.08
2022-12-01T21:27:25.055Z,18.17
2022-12-01T21:30:29.829Z,19.23
2022-12-01T21:33:34.513Z,16.83
2022-12-01T21:36:37.126Z,18.27
2022-12-01T21:39:39.421Z,18.48
2022-12-01T21:42:41.927Z,18.62
2022-12-01T21:45:44.274Z,18.92
2022-12-01T21:48:47.366Z,19.80
2022-12-01T21:51:51.931Z,20.52
2022-12-01T21:54:54.806Z,18.85
2022-12-01T21:57:57.114Z,18.45
2022-12-01T22:01:00.519Z,19.45
2022-12-01T22:04:12.887Z,20.70
2022-12-01T22:07:15.359Z,20.45
2022-12-01T22:10:52.123Z,19.23
2022-12-01T22:14:12.918Z,18.05
2022-12-01T22:17:20.544Z,20.50
2022-12-01T22:20:22.987Z,20.73
2022-12-01T22:23:33.855Z,18.55
2022-12-01T22:26:38.136Z,19.48
2022-12-01T22:29:44.460Z,16.40
2022-12-01T22:32:58.282Z,20.40
2022-12-01T22:36:01.149Z,20.77
2022-12-01T22:39:22.870Z,20.52
2022-12-01T22:42:35.513Z,21.70
2022-12-01T22:45:38.594Z,19.90
2022-12-01T22:48:45.025Z,21.27
2022-12-01T22:51:50.182Z,21.47
2022-12-01T22:54:52.856Z,20.92
2022-12-01T22:57:55.610Z,21.00
2022-12-01T23:01:07.750Z,20.35
2022-12-01T23:04:19.265Z,19.73
2022-12-01T23:07:35.198Z,15.83
2022-12-01T23:10:39.851Z,15.52
2022-12-01T23:13:42.315Z,16.90
2022-12-01T23:16:44.646Z,15.15
2022-12-01T23:19:48.990Z,16.48
2022-12-01T23:22:56.203Z,18.20
2022-12-01T23:26:01.296Z,17.10
2022-12-01T23:29:03.533Z,15.93
2022-12-01T23:32:06.140Z,16.17
2022-12-01T23:35:16.164Z,13.35
2022-12-01T23:38:29.689Z,14.83
2022-12-01T23:41:33.380Z,13.80
2022-12-01T23:44:40.861Z,14.27
2022-12-01T23:47:43.211Z,14.77
2022-12-01T23:50:47.497Z,13.55
2022-12-01T23:53:52.091Z,15.67
2022-12-01T23:56:58.771Z,14.87
